createdAt,value
2019-02-25T00:01:51.653Z,71.08
2019-02-25T00:04:21.374Z,70.91
2019-02-25T00:06:51.391Z,70.69
2019-02-25T00:09:21.423Z,70.82
2019-02-25T00:11:51.272Z,70.86
2019-02-25T00:14:22.009Z,71.28
2019-02-25T00:16:52.010Z,71.24
2019-02-25T00:19:21.684Z,71.16
2019-02-25T00:21:51.425Z,70.27
2019-02-25T00:24:21.131Z,69.39
2019-02-25T00:26:50.861Z,68.99
2019-02-25T00:29:20.702Z,69.24
2019-02-25T00:31:50.436Z,69.68
2019-02-25T00:34:20.347Z,69.48
2019-02-25T00:36:50.164Z,69.69
2019-02-25T00:39:19.991Z,69.83
2019-02-25T00:41:49.703Z,69.88
2019-02-25T00:44:19.467Z,71.59
2019-02-25T00:46:49.355Z,72.90
2019-02-25T00:49:20.257Z,73.46
2019-02-25T00:51:50.439Z,73.28
2019-02-25T00:54:20.407Z,72.72
2019-02-25T00:56:50.172Z,73.71
2019-02-25T00:59:20.133Z,73.85
2019-02-25T01:01:50.144Z,73.53
2019-02-25T01:04:19.869Z,72.59
2019-02-25T01:06:49.563Z,72.75
2019-02-25T01:09:19.587Z,72.24
2019-02-25T01:11:49.402Z,71.50
2019-02-25T01:14:20.428Z,72.29
2019-02-25T01:16:50.373Z,72.89
2019-02-25T01:19:20.355Z,72.97
2019-02-25T01:21:50.262Z,73.06
2019-02-25T01:24:20.315Z,72.64
2019-02-25T01:26:50.310Z,72.79
2019-02-25T01:29:20.231Z,73.11
2019-02-25T01:31:50.259Z,72.17
2019-02-25T01:34:20.347Z,71.89
2019-02-25T01:36:50.084Z,71.34
2019-02-25T01:39:20.121Z,71.66
2019-02-25T01:41:49.824Z,71.86
2019-02-25T01:44:19.841Z,71.37
2019-02-25T01:46:49.593Z,71.76
2019-02-25T01:49:19.319Z,72.54
2019-02-25T01:51:49.007Z,72.63
2019-02-25T01:54:18.977Z,72.64
2019-02-25T01:56:48.769Z,72.49
2019-02-25T01:59:18.491Z,72.69
2019-02-25T02:01:48.543Z,74.06
2019-02-25T02:04:18.261Z,74.76
2019-02-25T02:06:48.018Z,75.50
2019-02-25T02:09:17.941Z,75.48
2019-02-25T02:11:47.636Z,76.16
2019-02-25T02:14:17.950Z,76.33
2019-02-25T02:16:48.074Z,76.43
2019-02-25T02:19:18.090Z,76.50
2019-02-25T02:21:47.799Z,76.24
2019-02-25T02:24:17.858Z,76.54
2019-02-25T02:26:47.852Z,75.04
2019-02-25T02:29:18.010Z,74.31
2019-02-25T02:31:47.904Z,73.78
2019-02-25T02:34:17.749Z,73.51
2019-02-25T02:36:47.742Z,73.31
2019-02-25T02:39:17.713Z,72.63
2019-02-25T02:42:04.941Z,72.48
2019-02-25T02:44:34.865Z,72.37
2019-02-25T02:47:22.101Z,72.18
2019-02-25T02:49:51.871Z,72.19
2019-02-25T02:52:21.913Z,72.32
2019-02-25T02:54:51.945Z,72.33
2019-02-25T02:57:21.869Z,72.27
2019-02-25T02:59:51.670Z,71.97
2019-02-25T03:02:21.935Z,71.76
2019-02-25T03:04:51.993Z,71.88
2019-02-25T03:07:21.717Z,72.16
2019-02-25T03:09:51.609Z,72.42
2019-02-25T03:12:21.758Z,71.19
2019-02-25T03:14:51.768Z,71.01
2019-02-25T03:17:23.195Z,71.30
2019-02-25T03:19:54.461Z,72.69
2019-02-25T03:22:24.387Z,74.18
2019-02-25T03:24:55.436Z,73.89
2019-02-25T03:27:25.519Z,72.61
2019-02-25T03:29:55.230Z,71.75
2019-02-25T03:32:25.256Z,71.23
2019-02-25T03:34:55.165Z,71.89
2019-02-25T03:37:25.177Z,71.51
2019-02-25T03:39:55.185Z,70.77
2019-02-25T03:42:25.194Z,71.44
2019-02-25T03:44:55.096Z,71.65
2019-02-25T03:47:24.831Z,71.48
2019-02-25T03:49:54.832Z,71.29
2019-02-25T03:52:24.561Z,71.76
2019-02-25T03:54:54.568Z,70.94
2019-02-25T03:57:24.796Z,71.60
2019-02-25T03:59:54.819Z,71.35
2019-02-25T04:02:24.912Z,71.10
2019-02-25T04:04:55.050Z,72.11
2019-02-25T04:07:25.069Z,72.14
2019-02-25T04:09:55.021Z,72.34
2019-02-25T04:12:25.036Z,72.13
2019-02-25T04:14:54.801Z,71.86
2019-02-25T04:17:24.764Z,71.06
2019-02-25T04:19:55.010Z,71.00
2019-02-25T04:22:25.274Z,71.29
2019-02-25T04:24:55.434Z,71.64
2019-02-25T04:27:25.535Z,71.23
2019-02-25T04:29:55.462Z,71.16
2019-02-25T04:32:25.405Z,71.97
2019-02-25T04:34:55.561Z,72.31
2019-02-25T04:37:25.402Z,72.32
2019-02-25T04:39:55.155Z,72.39
2019-02-25T04:42:25.008Z,72.50
2019-02-25T04:44:55.066Z,73.43
2019-02-25T04:47:24.826Z,73.90
2019-02-25T04:49:54.575Z,74.22
2019-02-25T04:52:24.364Z,74.25
2019-02-25T04:54:54.071Z,73.56
2019-02-25T04:57:23.864Z,73.60
2019-02-25T04:59:53.613Z,74.33
2019-02-25T05:02:23.380Z,74.39
2019-02-25T05:04:53.166Z,74.51
2019-02-25T05:07:23.266Z,75.01
2019-02-25T05:09:53.144Z,75.01
2019-02-25T05:12:23.388Z,75.62
2019-02-25T05:14:53.491Z,74.81
2019-02-25T05:17:23.330Z,74.52
2019-02-25T05:19:53.449Z,74.18
2019-02-25T05:22:23.465Z,74.23
2019-02-25T05:24:53.342Z,74.40
2019-02-25T05:27:23.560Z,74.63
2019-02-25T05:29:54.605Z,74.44
2019-02-25T05:32:24.565Z,74.83
2019-02-25T05:34:54.412Z,75.45
2019-02-25T05:37:24.525Z,74.88
2019-02-25T05:39:54.347Z,74.64
2019-02-25T05:42:24.099Z,73.91
2019-02-25T05:44:53.908Z,73.69
2019-02-25T05:47:23.909Z,73.56
2019-02-25T05:49:55.048Z,74.24
2019-02-25T05:52:24.898Z,74.09
2019-02-25T05:54:54.798Z,73.20
2019-02-25T05:57:24.521Z,72.75
2019-02-25T05:59:54.427Z,72.97
2019-02-25T06:02:24.330Z,71.76
2019-02-25T06:04:54.100Z,70.23
2019-02-25T06:07:23.830Z,68.87
2019-02-25T06:09:53.789Z,67.22
2019-02-25T06:12:23.764Z,66.96
2019-02-25T06:14:53.707Z,65.80
2019-02-25T06:17:23.744Z,65.50
2019-02-25T06:19:53.813Z,64.88
2019-02-25T06:22:23.988Z,64.37
2019-02-25T06:24:53.944Z,63.97
2019-02-25T06:27:30.689Z,63.76
2019-02-25T06:29:55.957Z,64.49
2019-02-25T06:32:26.098Z,64.91
2019-02-25T06:34:56.065Z,65.01
2019-02-25T06:37:26.550Z,65.41
2019-02-25T06:39:56.653Z,65.98
2019-02-25T06:42:26.853Z,66.85
2019-02-25T06:44:56.977Z,65.82
2019-02-25T06:47:27.014Z,64.12
2019-02-25T06:49:57.035Z,62.53
2019-02-25T06:52:27.166Z,62.15
2019-02-25T06:54:57.161Z,60.76
2019-02-25T06:57:27.500Z,59.38
2019-02-25T06:59:57.582Z,60.27
2019-02-25T07:02:27.810Z,59.62
2019-02-25T07:05:19.820Z,61.53
2019-02-25T07:07:55.064Z,60.96
2019-02-25T07:10:44.748Z,60.11
2019-02-25T07:13:48.546Z,57.16
2019-02-25T07:16:40.229Z,58.29
2019-02-25T07:19:34.872Z,58.53
2019-02-25T07:22:30.115Z,58.86
2019-02-25T07:25:08.470Z,60.15
2019-02-25T07:27:47.717Z,60.24
2019-02-25T07:30:36.620Z,58.99
2019-02-25T07:33:28.344Z,60.20
2019-02-25T07:36:11.670Z,60.59
2019-02-25T07:38:51.921Z,58.84
2019-02-25T07:41:43.748Z,56.91
2019-02-25T07:44:42.041Z,57.20
2019-02-25T07:47:31.005Z,56.55
2019-02-25T07:50:23.816Z,57.67
2019-02-25T07:53:01.319Z,58.28
2019-02-25T07:56:02.411Z,57.80
2019-02-25T07:58:47.896Z,57.50
2019-02-25T08:01:39.696Z,55.80
2019-02-25T08:04:17.739Z,53.08
2019-02-25T08:07:00.360Z,51.33
2019-02-25T08:09:36.100Z,51.30
2019-02-25T08:12:25.026Z,49.55
2019-02-25T08:15:12.825Z,49.54
2019-02-25T08:17:58.614Z,49.37
2019-02-25T08:20:44.194Z,46.23
2019-02-25T08:23:32.856Z,47.40
2019-02-25T08:26:27.778Z,45.66
2019-02-25T08:29:06.334Z,47.78
2019-02-25T08:31:53.594Z,45.86
2019-02-25T08:34:48.684Z,46.70
2019-02-25T08:38:03.473Z,49.62
2019-02-25T08:40:55.481Z,48.24
2019-02-25T08:44:02.364Z,48.02
2019-02-25T08:46:44.166Z,45.80
2019-02-25T08:49:21.454Z,44.99
2019-02-25T08:51:51.611Z,43.73
2019-02-25T08:54:21.536Z,43.38
2019-02-25T08:56:51.602Z,42.58
2019-02-25T08:59:21.547Z,41.37
2019-02-25T09:01:51.646Z,41.76
2019-02-25T09:04:21.455Z,43.58
2019-02-25T09:06:51.595Z,41.98
2019-02-25T09:09:21.960Z,41.82
2019-02-25T09:11:52.019Z,40.59
2019-02-25T09:14:22.193Z,40.59
2019-02-25T09:16:52.241Z,42.85
2019-02-25T09:19:22.439Z,41.69
2019-02-25T09:21:52.594Z,39.35
2019-02-25T09:24:22.555Z,40.77
2019-02-25T09:26:52.415Z,39.13
2019-02-25T09:29:22.478Z,40.16
2019-02-25T09:31:52.710Z,41.74
2019-02-25T09:34:22.921Z,36.52
2019-02-25T09:36:52.949Z,35.58
2019-02-25T09:39:23.042Z,35.48
2019-02-25T09:41:53.091Z,35.95
2019-02-25T09:44:23.097Z,35.11
2019-02-25T09:46:53.228Z,36.77
2019-02-25T09:49:23.448Z,34.34
2019-02-25T09:51:53.477Z,34.09
2019-02-25T09:54:23.519Z,33.68
2019-02-25T09:56:53.661Z,34.06
2019-02-25T09:59:23.670Z,33.75
2019-02-25T10:01:53.744Z,33.92
2019-02-25T10:04:23.745Z,37.42
2019-02-25T10:07:02.136Z,38.30
2019-02-25T10:09:29.815Z,32.84
2019-02-25T10:11:57.186Z,32.56
2019-02-25T10:14:27.343Z,32.80
2019-02-25T10:16:57.320Z,32.44
2019-02-25T10:19:27.504Z,33.77
2019-02-25T10:21:57.549Z,33.50
2019-02-25T10:24:27.791Z,32.75
2019-02-25T10:26:58.924Z,34.14
2019-02-25T10:29:29.208Z,32.63
2019-02-25T10:32:00.182Z,31.61
2019-02-25T10:34:30.979Z,31.84
2019-02-25T10:37:01.157Z,32.72
2019-02-25T10:39:31.560Z,32.53
2019-02-25T10:42:01.794Z,37.16
2019-02-25T10:44:33.970Z,35.28
2019-02-25T10:47:03.454Z,32.51
2019-02-25T10:49:34.486Z,32.04
2019-02-25T10:52:04.531Z,31.27
2019-02-25T10:54:34.647Z,33.12
2019-02-25T10:57:06.173Z,32.56
2019-02-25T10:59:39.518Z,31.58
2019-02-25T11:02:11.597Z,32.78
2019-02-25T11:04:43.859Z,33.09
2019-02-25T11:07:13.731Z,33.81
2019-02-25T11:09:55.604Z,32.22
2019-02-25T11:12:26.319Z,32.76
2019-02-25T11:14:57.384Z,34.61
2019-02-25T11:17:27.237Z,33.52
2019-02-25T11:19:58.523Z,33.60
2019-02-25T11:22:28.676Z,33.21
2019-02-25T11:24:58.684Z,34.05
2019-02-25T11:27:30.912Z,34.89
2019-02-25T11:30:00.263Z,35.23
2019-02-25T11:32:30.685Z,35.92
2019-02-25T11:35:01.373Z,35.83
2019-02-25T11:37:32.295Z,35.88
2019-02-25T11:40:04.298Z,36.67
2019-02-25T11:42:34.187Z,35.99
2019-02-25T11:45:05.674Z,35.93
2019-02-25T11:47:35.767Z,36.36
2019-02-25T11:50:06.327Z,36.29
2019-02-25T11:52:36.331Z,35.43
2019-02-25T11:55:06.983Z,36.28
2019-02-25T11:57:37.135Z,34.76
2019-02-25T12:00:11.489Z,36.26
2019-02-25T12:02:41.256Z,36.03
2019-02-25T12:05:11.816Z,35.69
2019-02-25T12:07:41.550Z,35.51
2019-02-25T12:10:11.504Z,35.54
2019-02-25T12:12:41.324Z,37.56
2019-02-25T12:15:13.243Z,38.70
2019-02-25T12:17:43.360Z,36.17
2019-02-25T12:20:14.442Z,34.41
2019-02-25T12:22:44.298Z,33.30
2019-02-25T12:25:15.067Z,34.08
2019-02-25T12:27:44.804Z,34.39
2019-02-25T12:30:16.021Z,34.90
2019-02-25T12:32:46.312Z,35.94
2019-02-25T12:35:16.780Z,36.95
2019-02-25T12:37:47.009Z,37.60
2019-02-25T12:40:17.281Z,37.73
2019-02-25T12:42:47.460Z,39.25
2019-02-25T12:45:17.989Z,39.95
2019-02-25T12:47:47.972Z,39.55
2019-02-25T12:50:18.309Z,40.91
2019-02-25T12:52:49.217Z,41.96
2019-02-25T12:55:19.659Z,42.02
2019-02-25T12:57:49.535Z,42.02
2019-02-25T13:00:19.957Z,42.00
2019-02-25T13:02:49.914Z,42.99
2019-02-25T13:05:21.352Z,41.94
2019-02-25T13:07:51.610Z,41.42
2019-02-25T13:10:22.195Z,41.63
2019-02-25T13:12:52.338Z,41.60
2019-02-25T13:15:22.842Z,41.08
2019-02-25T13:17:52.709Z,41.10
2019-02-25T13:20:24.005Z,41.86
2019-02-25T13:22:54.156Z,42.15
2019-02-25T13:25:24.880Z,42.89
2019-02-25T13:27:56.463Z,44.08
2019-02-25T13:30:26.774Z,44.11
2019-02-25T13:32:56.742Z,43.36
2019-02-25T13:35:27.167Z,43.88
2019-02-25T13:37:57.404Z,43.35
2019-02-25T13:40:27.701Z,44.56
2019-02-25T13:42:57.768Z,44.38
2019-02-25T13:45:28.368Z,43.55
2019-02-25T13:47:58.312Z,43.48
2019-02-25T13:50:29.034Z,44.36
2019-02-25T13:52:58.928Z,43.63
2019-02-25T13:55:29.121Z,43.95
2019-02-25T13:57:59.291Z,44.42
2019-02-25T14:00:29.834Z,44.74
2019-02-25T14:02:59.816Z,44.39
2019-02-25T14:05:30.459Z,44.73
2019-02-25T14:08:00.495Z,45.23
2019-02-25T14:10:30.358Z,45.75
2019-02-25T14:13:00.617Z,46.15
2019-02-25T14:15:30.898Z,47.15
2019-02-25T14:18:01.267Z,47.00
2019-02-25T14:20:31.219Z,47.09
2019-02-25T14:23:01.363Z,47.88
2019-02-25T14:25:31.365Z,48.49
2019-02-25T14:28:02.864Z,47.77
2019-02-25T14:30:33.433Z,47.46
2019-02-25T14:33:05.000Z,47.24
2019-02-25T14:35:35.286Z,48.21
2019-02-25T14:38:09.693Z,48.25
2019-02-25T14:40:39.805Z,48.30
2019-02-25T14:43:12.613Z,48.83
2019-02-25T14:45:42.082Z,48.92
2019-02-25T14:48:15.417Z,47.95
2019-02-25T14:50:44.321Z,47.71
2019-02-25T14:53:14.595Z,48.00
2019-02-25T14:55:46.839Z,48.17
2019-02-25T14:58:17.550Z,48.31
2019-02-25T15:00:47.680Z,48.35
2019-02-25T15:03:18.101Z,48.89
2019-02-25T15:05:50.218Z,48.72
2019-02-25T15:08:21.895Z,48.89
2019-02-25T15:10:52.321Z,48.91
2019-02-25T15:13:24.011Z,48.96
2019-02-25T15:15:53.914Z,49.01
2019-02-25T15:18:25.206Z,48.48
2019-02-25T15:20:56.472Z,48.52
2019-02-25T15:23:27.975Z,48.43
2019-02-25T15:26:05.002Z,48.71
2019-02-25T15:28:29.778Z,48.54
2019-02-25T15:31:01.805Z,48.81
2019-02-25T15:33:33.264Z,48.78
2019-02-25T15:36:03.409Z,48.57
2019-02-25T15:38:34.896Z,48.42
2019-02-25T15:41:07.278Z,48.50
2019-02-25T15:43:36.798Z,48.39
2019-02-25T15:46:06.672Z,48.00
2019-02-25T15:48:37.257Z,48.20
2019-02-25T15:51:08.052Z,47.99
2019-02-25T15:53:38.041Z,48.01
2019-02-25T15:56:10.330Z,48.02
2019-02-25T15:58:40.317Z,47.83
2019-02-25T16:01:11.571Z,48.01
2019-02-25T16:03:42.963Z,47.90
2019-02-25T16:06:12.859Z,47.38
2019-02-25T16:08:42.532Z,47.01
2019-02-25T16:11:13.944Z,47.87
2019-02-25T16:13:43.617Z,47.83
2019-02-25T16:16:14.409Z,48.70
2019-02-25T16:18:44.542Z,48.03
2019-02-25T16:21:14.680Z,48.01
2019-02-25T16:23:45.396Z,47.99
2019-02-25T16:26:16.173Z,47.92
2019-02-25T16:28:47.054Z,48.88
2019-02-25T16:31:17.056Z,47.85
2019-02-25T16:33:47.462Z,47.55
2019-02-25T16:36:18.384Z,47.54
2019-02-25T16:38:51.244Z,48.00
2019-02-25T16:41:27.173Z,48.65
2019-02-25T16:43:51.253Z,48.67
2019-02-25T16:46:21.342Z,48.61
2019-02-25T16:48:52.817Z,48.73
2019-02-25T16:51:23.886Z,49.12
2019-02-25T16:53:54.621Z,50.78
2019-02-25T16:56:24.589Z,50.02
2019-02-25T16:58:56.575Z,50.25
2019-02-25T17:01:27.967Z,50.22
2019-02-25T17:03:59.674Z,50.18
2019-02-25T17:06:30.397Z,50.97
2019-02-25T17:09:01.149Z,50.22
2019-02-25T17:11:32.676Z,50.35
2019-02-25T17:14:03.782Z,50.25
2019-02-25T17:16:33.944Z,50.78
2019-02-25T17:19:03.993Z,51.23
2019-02-25T17:21:33.833Z,51.02
2019-02-25T17:24:05.712Z,51.25
2019-02-25T17:26:35.823Z,51.02
2019-02-25T17:29:07.070Z,50.99
2019-02-25T17:31:38.577Z,51.67
2019-02-25T17:34:10.417Z,52.21
2019-02-25T17:36:40.038Z,52.10
2019-02-25T17:39:10.933Z,52.29
2019-02-25T17:41:42.981Z,51.97
2019-02-25T17:44:12.763Z,52.92
2019-02-25T17:46:43.368Z,52.80
2019-02-25T17:49:16.360Z,52.13
2019-02-25T17:51:45.973Z,52.38
2019-02-25T17:54:16.844Z,52.17
2019-02-25T17:56:47.470Z,52.81
2019-02-25T17:59:18.360Z,53.57
2019-02-25T18:01:50.151Z,53.66
2019-02-25T18:04:19.750Z,54.17
2019-02-25T18:06:49.822Z,55.63
2019-02-25T18:09:20.488Z,55.13
2019-02-25T18:11:51.823Z,55.01
2019-02-25T18:14:21.615Z,54.92
2019-02-25T18:16:51.775Z,55.48
2019-02-25T18:19:23.081Z,56.11
2019-02-25T18:21:53.527Z,57.63
2019-02-25T18:24:26.762Z,56.99
2019-02-25T18:26:55.149Z,59.67
2019-02-25T18:29:25.238Z,59.33
2019-02-25T18:31:55.886Z,58.86
2019-02-25T18:34:25.806Z,59.09
2019-02-25T18:36:55.815Z,59.89
2019-02-25T18:39:27.338Z,59.21
2019-02-25T18:41:57.290Z,60.25
2019-02-25T18:44:27.357Z,59.36
2019-02-25T18:46:57.429Z,59.86
2019-02-25T18:49:28.301Z,59.40
2019-02-25T18:51:58.691Z,60.09
2019-02-25T18:54:28.581Z,60.90
2019-02-25T18:56:59.008Z,59.65
2019-02-25T18:59:30.498Z,58.01
2019-02-25T19:02:00.643Z,57.17
2019-02-25T19:04:31.630Z,57.01
2019-02-25T19:07:02.402Z,56.12
2019-02-25T19:09:34.814Z,56.10
2019-02-25T19:12:06.511Z,56.45
2019-02-25T19:14:36.404Z,55.54
2019-02-25T19:17:08.537Z,54.99
2019-02-25T19:19:40.253Z,55.21
2019-02-25T19:22:10.773Z,55.36
2019-02-25T19:24:42.834Z,55.07
2019-02-25T19:27:13.496Z,55.82
2019-02-25T19:29:45.475Z,56.48
2019-02-25T19:32:15.395Z,56.35
2019-02-25T19:34:45.214Z,56.99
2019-02-25T19:37:15.489Z,56.98
2019-02-25T19:39:46.779Z,56.54
2019-02-25T19:42:18.147Z,57.70
2019-02-25T19:44:48.962Z,58.07
2019-02-25T19:47:19.948Z,59.08
2019-02-25T19:49:49.738Z,59.59
2019-02-25T19:52:19.731Z,60.86
2019-02-25T19:54:50.862Z,60.76
2019-02-25T19:57:21.671Z,60.36
2019-02-25T19:59:53.078Z,60.52
2019-02-25T20:02:24.857Z,61.12
2019-02-25T20:04:55.362Z,61.07
2019-02-25T20:07:27.967Z,61.40
2019-02-25T20:09:57.812Z,61.72
2019-02-25T20:12:28.368Z,62.56
2019-02-25T20:14:58.403Z,61.45
2019-02-25T20:17:30.498Z,61.92
2019-02-25T20:20:02.490Z,62.78
2019-02-25T20:22:32.779Z,61.89
2019-02-25T20:25:03.508Z,61.61
2019-02-25T20:27:34.825Z,61.70
2019-02-25T20:30:07.155Z,59.80
2019-02-25T20:32:38.577Z,59.76
2019-02-25T20:35:09.772Z,59.22
2019-02-25T20:37:40.002Z,58.08
2019-02-25T20:40:10.217Z,56.86
2019-02-25T20:42:40.526Z,56.71
2019-02-25T20:45:12.085Z,55.58
2019-02-25T20:47:41.910Z,56.27
2019-02-25T20:50:14.480Z,54.45
2019-02-25T20:52:44.715Z,54.93
2019-02-25T20:55:14.635Z,54.29
2019-02-25T20:57:44.657Z,53.50
2019-02-25T21:00:17.618Z,53.48
2019-02-25T21:02:47.570Z,53.40
2019-02-25T21:05:19.513Z,53.87
2019-02-25T21:07:50.473Z,53.62
2019-02-25T21:10:22.519Z,53.57
2019-02-25T21:12:53.054Z,53.62
2019-02-25T21:15:23.615Z,53.93
2019-02-25T21:17:55.043Z,53.78
2019-02-25T21:20:26.190Z,54.05
2019-02-25T21:22:57.855Z,53.84
2019-02-25T21:25:29.605Z,53.72
2019-02-25T21:28:02.308Z,54.17
2019-02-25T21:30:31.927Z,54.05
2019-02-25T21:33:02.106Z,53.90
2019-02-25T21:35:35.432Z,54.11
2019-02-25T21:38:04.021Z,54.25
2019-02-25T21:40:34.083Z,54.64
2019-02-25T21:43:03.918Z,54.75
2019-02-25T21:45:34.073Z,53.95
2019-02-25T21:48:04.832Z,54.33
2019-02-25T21:50:35.970Z,54.54
2019-02-25T21:53:07.501Z,54.55
2019-02-25T21:55:38.234Z,53.92
2019-02-25T21:58:08.364Z,54.24
2019-02-25T22:00:40.722Z,54.85
2019-02-25T22:03:10.906Z,54.97
2019-02-25T22:05:41.712Z,54.71
2019-02-25T22:08:11.615Z,55.38
2019-02-25T22:10:43.369Z,55.54
2019-02-25T22:13:14.342Z,55.76
2019-02-25T22:15:45.277Z,56.02
2019-02-25T22:18:15.177Z,57.41
2019-02-25T22:20:47.050Z,55.98
2019-02-25T22:23:16.534Z,56.33
2019-02-25T22:25:46.429Z,56.20
2019-02-25T22:28:16.152Z,57.10
2019-02-25T22:30:47.495Z,58.35
2019-02-25T22:33:26.639Z,56.93
2019-02-25T22:35:51.762Z,56.73
2019-02-25T22:38:21.158Z,56.82
2019-02-25T22:40:51.483Z,57.35
2019-02-25T22:43:22.551Z,57.76
2019-02-25T22:45:56.152Z,57.34
2019-02-25T22:48:24.089Z,57.87
2019-02-25T22:50:55.485Z,57.70
2019-02-25T22:53:26.745Z,57.89
2019-02-25T22:55:56.693Z,57.62
2019-02-25T22:58:27.971Z,57.21
2019-02-25T23:01:01.338Z,57.43
2019-02-25T23:03:32.989Z,57.39
2019-02-25T23:06:02.993Z,57.56
2019-02-25T23:08:32.694Z,57.09
2019-02-25T23:11:02.596Z,57.21
2019-02-25T23:13:32.491Z,56.90
2019-02-25T23:16:02.411Z,57.03
2019-02-25T23:18:32.430Z,57.16
2019-02-25T23:21:03.114Z,56.61
2019-02-25T23:23:33.516Z,56.38
2019-02-25T23:26:04.411Z,56.75
2019-02-25T23:28:34.489Z,56.48
2019-02-25T23:31:06.953Z,56.41
2019-02-25T23:33:40.139Z,56.26
2019-02-25T23:36:10.973Z,56.30
2019-02-25T23:38:41.539Z,56.20
2019-02-25T23:41:14.018Z,55.60
2019-02-25T23:43:44.858Z,55.39
2019-02-25T23:46:16.053Z,55.25
2019-02-25T23:48:46.645Z,54.84
2019-02-25T23:51:21.135Z,54.83
2019-02-25T23:53:53.199Z,55.19
2019-02-25T23:56:25.594Z,55.15
2019-02-25T23:58:55.570Z,55.23
